Cascade Locks, OR

3:32 AM PDT on October 22, 2014 (GMT -0700)
Hood River - West Ridge Drive | Change Station
CLOSE
Current Station
Personal Weather Station
Location: Hood River, OR
Elevation: 570 ft
Nearby Weather Stations
Active Advisory: Special Statement

Elev 570 ft 45.71 °N, 121.57 °W | Updated 1 second ago

Rain
Rain
50.5 °F
Feels Like 50.5 °F
N
1.9
Wind Variable Wind from SSE
Gusts 3.3 mph

Today
High -- | Low -- °F
--% Chance of Precip.
Yesterday
High -- | Low -- °F
Precip. -- in
7:33 AM 6:09 PM
Waning Crescent, 2% visible
Pressure 29.81 in
Visibility 10.0 miles
Clouds Overcast 3800 ft
Dew Point 48 °F
Humidity 91%
Rainfall 0.00 in
Snow Depth 0 in , 0 in , 0 in
UV 0 out of 12
Pollen 1.10 out of 12
Air Quality Not available.
Flu Activity Sporadic
METAR KTTD 220953Z AUTO 09007KT 10SM -RA OVC038 13/11 A2981 RMK AO2 RAE04B21 SLP095 P0000 T01330111

More Conditions Fewer Conditions

Pressure 29.81 in
Visibility 10.0 miles
Clouds Overcast 3800 ft
Dew Point 48 °F
Humidity 91%
Rainfall 0.00 in
Snow Depth 0 in , 0 in , 0 in
UV 0 out of 12
Pollen 1.10 out of 12
Air Quality Not available.
Flu Activity Sporadic
METAR KTTD 220953Z AUTO 09007KT 10SM -RA OVC038 13/11 A2981 RMK AO2 RAE04B21 SLP095 P0000 T01330111

More Conditions Fewer Conditions

10-Day Weather Forecast

Almanac

Astronomy

Oct. 22, 2014 Rise Set
Actual Time 7:33 AM PDT 6:09 PM PDT
Civil Twilight 7:03 AM PDT 6:39 PM PDT
Nautical Twilight 6:28 AM PDT 7:14 PM PDT
Astronomical Twilight 5:54 AM PDT 7:48 PM PDT
Moon 6:16 AM PDT 5:41 PM PDT
Length of Visible Light 11h 36m
Length of Day
10h 35m
Tomorrow will be 3m 2s shorter.
Waning Crescent, 2% of the Moon is Illuminated
Today
Waning Crescent
Oct 23
New
Oct 30
First Quarter
Nov 6
Full
Nov 14
Last Quarter

Today's Extremes

State Highs State Lows

Community

WunderPhotos

Upload Photos

1,763,900 photos uploaded!

Nearby

Snow Depth

Station Depth Elevation
Greenpoint 0 in 3200 ft
North Fork 0 in 3120 ft
Red Hill 0 in 4400 ft
Clear Lake 1 in 3500 ft
Clackamas Lake 0 in 3400 ft

Earthquake Activity

City Distance Mag. Time & Date
No recent earthquake activity has been reported nearby.
Minimum magnitude displayed is 2.5.

Coastal Water Temperatures

Place Temperature
No Stations Reporting

Nearby Weather Stations